createdAt,value
2022-12-05T00:01:26.020Z,10.63
2022-12-05T00:03:55.988Z,10.97
2022-12-05T00:06:24.435Z,10.60
2022-12-05T00:08:51.971Z,10.73
2022-12-05T00:11:21.176Z,10.27
2022-12-05T00:13:49.270Z,10.00
2022-12-05T00:16:19.023Z,10.50
2022-12-05T00:18:46.636Z,10.93
2022-12-05T00:21:21.688Z,10.37
2022-12-05T00:23:49.265Z,10.60
2022-12-05T00:26:16.835Z,10.50
2022-12-05T00:28:44.716Z,9.23
2022-12-05T00:31:14.060Z,9.90
2022-12-05T00:33:41.616Z,9.60
2022-12-05T00:36:13.943Z,10.97
2022-12-05T00:38:42.312Z,9.80
2022-12-05T00:41:11.059Z,10.63
2022-12-05T00:43:38.765Z,10.07
2022-12-05T00:46:07.393Z,10.77
2022-12-05T00:48:35.186Z,10.13
2022-12-05T00:51:03.600Z,10.30
2022-12-05T00:53:31.432Z,10.40
2022-12-05T00:56:19.447Z,10.23
2022-12-05T00:58:47.466Z,10.10
2022-12-05T01:01:23.075Z,10.23
2022-12-05T01:03:52.184Z,10.33
2022-12-05T01:06:19.658Z,10.03
2022-12-05T01:08:46.989Z,10.83
2022-12-05T01:11:16.980Z,10.67
2022-12-05T01:13:44.512Z,9.30
2022-12-05T01:16:19.822Z,10.50
2022-12-05T01:18:47.469Z,9.47
2022-12-05T01:21:14.896Z,9.27
2022-12-05T01:23:42.283Z,10.87
2022-12-05T01:26:10.645Z,10.17
2022-12-05T01:28:38.031Z,10.07
2022-12-05T01:31:09.309Z,10.27
2022-12-05T01:33:36.887Z,10.60
2022-12-05T01:36:04.461Z,9.30
2022-12-05T01:38:31.871Z,10.23
2022-12-05T01:41:03.913Z,10.47
2022-12-05T01:43:31.740Z,9.83
2022-12-05T01:45:59.309Z,9.57
2022-12-05T01:48:28.862Z,10.60
2022-12-05T01:50:56.316Z,9.83
2022-12-05T01:53:23.995Z,9.70
2022-12-05T01:55:51.994Z,9.67
2022-12-05T01:58:20.166Z,9.23
2022-12-05T02:00:48.132Z,9.70
2022-12-05T02:03:18.424Z,9.87
2022-12-05T02:05:48.152Z,10.20
2022-12-05T02:08:15.701Z,8.73
2022-12-05T02:10:53.240Z,9.47
2022-12-05T02:13:43.642Z,8.87
2022-12-05T02:16:10.998Z,9.77
2022-12-05T02:18:38.352Z,9.63
2022-12-05T02:21:05.762Z,8.70
2022-12-05T02:23:42.309Z,9.90
2022-12-05T02:26:09.730Z,9.27
2022-12-05T02:29:02.336Z,9.40
2022-12-05T02:31:38.415Z,9.30
2022-12-05T02:34:07.455Z,9.30
2022-12-05T02:36:45.368Z,9.60
2022-12-05T02:39:22.565Z,9.60
2022-12-05T02:41:55.300Z,9.40
2022-12-05T02:44:28.622Z,9.77
2022-12-05T02:46:56.969Z,8.90
2022-12-05T02:49:26.369Z,9.47
2022-12-05T02:51:56.132Z,9.77
2022-12-05T02:54:28.283Z,9.07
2022-12-05T02:56:56.025Z,9.70
2022-12-05T02:59:23.913Z,9.07
2022-12-05T03:01:51.825Z,9.07
2022-12-05T03:04:20.526Z,9.10
2022-12-05T03:06:50.494Z,9.43
2022-12-05T03:09:31.643Z,9.67
2022-12-05T03:12:11.643Z,8.77
2022-12-05T03:14:48.070Z,9.27
2022-12-05T03:17:18.629Z,9.73
2022-12-05T03:19:45.968Z,8.90
2022-12-05T03:22:19.719Z,8.77
2022-12-05T03:24:47.173Z,9.17
2022-12-05T03:27:47.126Z,9.07
2022-12-05T03:30:16.807Z,8.53
2022-12-05T03:32:54.295Z,9.13
2022-12-05T03:35:25.785Z,8.40
2022-12-05T03:37:54.530Z,9.13
2022-12-05T03:40:37.490Z,8.93
2022-12-05T03:43:23.577Z,9.37
2022-12-05T03:45:54.038Z,9.73
2022-12-05T03:48:24.997Z,9.63
2022-12-05T03:50:54.019Z,9.30
2022-12-05T03:53:26.022Z,9.40
2022-12-05T03:55:56.831Z,8.90
2022-12-05T03:58:27.977Z,10.20
2022-12-05T04:00:58.519Z,9.13
2022-12-05T04:03:40.596Z,9.93
2022-12-05T04:06:11.505Z,8.23
2022-12-05T04:08:45.129Z,9.20
2022-12-05T04:11:15.464Z,9.10
2022-12-05T04:13:44.428Z,9.97
2022-12-05T04:16:35.332Z,9.90
2022-12-05T04:19:22.927Z,8.50
2022-12-05T04:21:52.447Z,9.53
2022-12-05T04:24:47.915Z,9.07
2022-12-05T04:27:18.350Z,8.70
2022-12-05T04:37:49.496Z,9.10
2022-12-05T04:40:23.247Z,9.47
2022-12-05T04:42:52.482Z,9.27
2022-12-05T04:45:21.338Z,8.93
2022-12-05T04:47:55.603Z,9.23
2022-12-05T04:50:24.034Z,9.60
2022-12-05T04:52:53.041Z,9.57
2022-12-05T04:55:26.271Z,9.57
2022-12-05T04:58:00.938Z,8.70
2022-12-05T05:00:29.343Z,9.07
2022-12-05T05:03:01.685Z,8.37
2022-12-05T05:05:29.900Z,8.87
2022-12-05T05:07:57.496Z,10.60
2022-12-05T05:10:46.270Z,8.73
2022-12-05T05:13:13.762Z,9.23
2022-12-05T05:15:41.317Z,7.83
2022-12-05T05:18:10.251Z,7.90
2022-12-05T05:20:37.730Z,8.83
2022-12-05T05:23:05.224Z,8.03
2022-12-05T05:25:32.730Z,8.77
2022-12-05T05:28:00.335Z,9.07
2022-12-05T05:30:27.863Z,8.93
2022-12-05T05:32:55.421Z,9.87
2022-12-05T05:35:22.992Z,8.97
2022-12-05T05:37:50.652Z,9.87
2022-12-05T05:40:18.515Z,8.60
2022-12-05T05:42:46.863Z,8.27
2022-12-05T05:45:15.490Z,7.37
2022-12-05T05:47:43.383Z,8.60
2022-12-05T05:50:15.030Z,7.80
2022-12-05T05:52:45.517Z,7.77
2022-12-05T05:55:13.108Z,6.90
2022-12-05T05:57:40.593Z,7.03
2022-12-05T06:00:08.665Z,6.63
2022-12-05T06:02:36.847Z,6.73
2022-12-05T06:05:04.949Z,6.03
2022-12-05T06:07:33.032Z,6.20
2022-12-05T06:10:01.125Z,6.20
2022-12-05T06:12:28.942Z,6.50
2022-12-05T06:14:56.616Z,6.00
2022-12-05T06:17:24.123Z,5.30
2022-12-05T06:19:51.686Z,5.50
2022-12-05T06:22:19.244Z,5.50
2022-12-05T06:24:46.957Z,5.37
2022-12-05T06:27:14.410Z,4.70
2022-12-05T06:29:42.077Z,4.57
2022-12-05T06:32:09.611Z,4.87
2022-12-05T06:34:37.182Z,4.77
2022-12-05T06:37:04.783Z,5.23
2022-12-05T06:39:32.665Z,4.83
2022-12-05T06:42:00.264Z,4.47
2022-12-05T06:44:28.841Z,4.80
2022-12-05T06:46:57.307Z,4.50
2022-12-05T06:49:31.684Z,5.50
2022-12-05T06:52:01.268Z,4.83
2022-12-05T06:54:28.812Z,7.03
2022-12-05T06:56:56.369Z,5.60
2022-12-05T06:59:23.910Z,4.77
2022-12-05T07:01:51.610Z,4.57
2022-12-05T07:04:24.550Z,5.27
2022-12-05T07:06:52.973Z,4.67
2022-12-05T07:09:21.602Z,4.80
2022-12-05T07:11:49.870Z,4.63
2022-12-05T07:14:46.232Z,4.07
2022-12-05T07:17:05.561Z,4.60
2022-12-05T07:19:33.120Z,4.10
2022-12-05T07:22:00.820Z,4.67
2022-12-05T07:24:28.553Z,5.17
2022-12-05T07:26:56.060Z,3.90
2022-12-05T07:29:23.557Z,4.80
2022-12-05T07:31:51.196Z,4.60
2022-12-05T07:34:18.702Z,4.50
2022-12-05T07:36:46.259Z,4.57
2022-12-05T07:39:13.791Z,4.53
2022-12-05T07:41:42.249Z,4.50
2022-12-05T07:44:13.240Z,4.70
2022-12-05T07:46:41.180Z,5.10
2022-12-05T07:49:09.027Z,5.20
2022-12-05T07:51:36.983Z,4.83
2022-12-05T07:54:04.533Z,4.70
2022-12-05T07:56:32.038Z,4.60
2022-12-05T07:58:59.582Z,4.87
2022-12-05T08:01:28.706Z,4.17
2022-12-05T08:03:58.191Z,4.77
2022-12-05T08:06:28.724Z,5.10
2022-12-05T08:08:56.829Z,5.03
2022-12-05T08:11:25.699Z,5.00
2022-12-05T08:13:54.772Z,5.00
2022-12-05T08:16:25.659Z,4.90
2022-12-05T08:18:58.104Z,5.00
2022-12-05T08:21:26.004Z,4.80
2022-12-05T08:23:53.551Z,5.40
2022-12-05T08:26:24.560Z,4.47
2022-12-05T08:28:53.354Z,5.17
2022-12-05T08:31:24.664Z,5.13
2022-12-05T08:33:57.106Z,5.33
2022-12-05T08:36:27.428Z,5.10
2022-12-05T08:39:04.997Z,5.20
2022-12-05T08:41:33.398Z,4.80
2022-12-05T08:44:03.382Z,4.80
2022-12-05T08:46:32.272Z,4.47
2022-12-05T08:49:00.244Z,4.40
2022-12-05T08:51:27.741Z,4.80
2022-12-05T08:53:56.554Z,4.43
2022-12-05T08:56:27.113Z,4.83
2022-12-05T08:59:01.119Z,4.50
2022-12-05T09:01:33.488Z,4.23
2022-12-05T09:04:02.530Z,4.23
2022-12-05T09:06:30.577Z,3.83
2022-12-05T09:08:59.175Z,4.57
2022-12-05T09:11:28.344Z,3.87
2022-12-05T09:13:56.904Z,4.23
2022-12-05T09:16:36.950Z,4.23
2022-12-05T09:19:07.858Z,4.30
2022-12-05T09:21:35.534Z,4.47
2022-12-05T09:24:03.015Z,4.07
2022-12-05T09:26:31.145Z,4.40
2022-12-05T09:28:58.746Z,3.60
2022-12-05T09:31:27.664Z,4.00
2022-12-05T09:33:55.529Z,3.90
2022-12-05T09:36:25.054Z,4.43
2022-12-05T09:38:52.843Z,4.33
2022-12-05T09:41:57.707Z,4.50
2022-12-05T09:44:34.208Z,4.60
2022-12-05T09:47:09.062Z,4.47
2022-12-05T09:49:37.236Z,4.27
2022-12-05T09:52:05.713Z,4.37
2022-12-05T09:54:33.474Z,4.63
2022-12-05T09:57:01.131Z,4.70
2022-12-05T09:59:28.602Z,5.00
2022-12-05T10:02:14.826Z,4.57
2022-12-05T10:04:58.541Z,4.93
2022-12-05T10:07:27.776Z,4.77
2022-12-05T10:10:19.755Z,5.03
2022-12-05T10:12:47.955Z,5.03
2022-12-05T10:15:24.075Z,5.13
2022-12-05T10:17:57.115Z,4.73
2022-12-05T10:20:29.696Z,5.67
2022-12-05T10:23:55.573Z,5.40
2022-12-05T10:26:12.738Z,4.53
2022-12-05T10:29:06.746Z,4.87
2022-12-05T10:31:35.940Z,5.17
2022-12-05T10:34:06.920Z,5.47
2022-12-05T10:36:34.956Z,5.50
2022-12-05T10:39:06.938Z,5.17
2022-12-05T10:41:37.523Z,5.13
2022-12-05T10:44:06.034Z,5.20
2022-12-05T10:46:33.764Z,5.43
2022-12-05T10:49:01.292Z,5.17
2022-12-05T10:51:34.180Z,5.13
2022-12-05T10:54:25.266Z,5.30
2022-12-05T10:56:54.489Z,5.50
2022-12-05T10:59:26.862Z,6.30
2022-12-05T11:01:57.035Z,5.17
2022-12-05T11:04:44.842Z,6.37
2022-12-05T11:07:25.246Z,5.47
2022-12-05T11:09:52.996Z,6.30
2022-12-05T11:12:26.081Z,6.00
2022-12-05T11:14:57.075Z,10.67
2022-12-05T11:17:26.942Z,7.37
2022-12-05T11:19:55.097Z,6.63
2022-12-05T11:22:30.890Z,6.50
2022-12-05T11:24:58.671Z,6.10
2022-12-05T11:27:30.978Z,6.07
2022-12-05T11:30:03.091Z,5.67
2022-12-05T11:32:32.510Z,6.93
2022-12-05T11:35:12.347Z,6.70
2022-12-05T11:37:49.192Z,6.23
2022-12-05T11:40:19.914Z,8.27
2022-12-05T11:42:49.073Z,6.77
2022-12-05T11:45:22.684Z,6.83
2022-12-05T11:48:05.504Z,8.50
2022-12-05T11:50:33.061Z,6.53
2022-12-05T11:53:09.718Z,6.73
2022-12-05T11:55:46.190Z,6.70
2022-12-05T11:58:32.517Z,6.90
2022-12-05T12:01:21.411Z,5.43
2022-12-05T12:03:52.272Z,5.90
2022-12-05T12:06:28.272Z,6.57
2022-12-05T12:09:14.550Z,5.20
2022-12-05T12:11:52.784Z,4.80
2022-12-05T12:14:24.311Z,2.43
2022-12-05T12:17:10.494Z,4.30
2022-12-05T12:19:56.164Z,4.50
2022-12-05T12:22:29.609Z,4.27
2022-12-05T12:25:17.798Z,3.63
2022-12-05T12:27:49.179Z,4.00
2022-12-05T12:30:20.445Z,3.70
2022-12-05T12:33:00.114Z,2.93
2022-12-05T12:35:29.534Z,3.73
2022-12-05T12:38:08.587Z,3.70
2022-12-05T12:40:51.230Z,3.53
2022-12-05T12:43:52.732Z,3.37
2022-12-05T12:46:16.873Z,3.80
2022-12-05T12:48:53.462Z,3.60
2022-12-05T12:51:21.314Z,3.90
2022-12-05T12:53:48.755Z,4.30
2022-12-05T12:56:38.565Z,3.70
2022-12-05T12:59:16.053Z,45.17
2022-12-05T13:01:54.998Z,85.77
2022-12-05T13:04:40.546Z,33.47
2022-12-05T13:07:14.113Z,7.77
2022-12-05T13:09:41.664Z,5.00
2022-12-05T13:12:12.657Z,4.10
2022-12-05T13:14:41.684Z,5.17
2022-12-05T13:17:09.827Z,4.50
2022-12-05T13:19:43.545Z,4.70
2022-12-05T13:22:11.838Z,4.90
2022-12-05T13:24:39.971Z,4.40
2022-12-05T13:27:08.833Z,3.73
2022-12-05T13:29:36.451Z,4.53
2022-12-05T13:32:05.060Z,4.13
2022-12-05T13:34:36.250Z,4.40
2022-12-05T13:37:30.103Z,4.17
2022-12-05T13:40:16.761Z,4.20
2022-12-05T13:42:44.773Z,4.33
2022-12-05T13:45:16.590Z,3.70
2022-12-05T13:47:56.086Z,3.77
2022-12-05T13:50:55.798Z,4.17
2022-12-05T13:53:27.184Z,4.20
2022-12-05T13:55:57.676Z,3.90
2022-12-05T13:58:25.161Z,3.83
2022-12-05T14:01:12.668Z,3.70
2022-12-05T14:03:40.220Z,3.60
2022-12-05T14:06:08.059Z,4.27
2022-12-05T14:08:51.723Z,3.87
2022-12-05T14:11:22.165Z,3.43
2022-12-05T14:13:49.873Z,3.50
2022-12-05T14:16:26.700Z,3.60
2022-12-05T14:19:13.080Z,3.80
2022-12-05T14:21:46.350Z,3.60
2022-12-05T14:24:33.636Z,3.50
2022-12-05T14:27:11.477Z,3.30
2022-12-05T14:29:58.949Z,3.70
2022-12-05T14:32:31.829Z,3.57
2022-12-05T14:35:02.236Z,3.20
2022-12-05T14:37:35.255Z,3.53
2022-12-05T14:40:26.246Z,3.57
2022-12-05T14:42:55.372Z,3.37
2022-12-05T14:45:28.831Z,3.43
2022-12-05T14:48:00.930Z,3.70
2022-12-05T14:50:37.372Z,3.73
2022-12-05T14:53:24.056Z,3.40
2022-12-05T14:55:56.540Z,3.73
2022-12-05T14:58:26.577Z,3.50
2022-12-05T15:00:58.919Z,3.57
2022-12-05T15:03:30.195Z,3.63
2022-12-05T15:06:03.290Z,3.67
2022-12-05T15:08:33.897Z,3.20
2022-12-05T15:11:02.592Z,3.47
2022-12-05T15:13:30.700Z,3.63
2022-12-05T15:16:09.030Z,3.43
2022-12-05T15:18:40.369Z,3.90
2022-12-05T15:21:10.941Z,3.67
2022-12-05T15:23:45.925Z,3.47
2022-12-05T15:26:45.480Z,3.47
2022-12-05T15:29:14.160Z,3.47
2022-12-05T15:31:49.081Z,3.47
2022-12-05T15:34:25.416Z,3.50
2022-12-05T15:37:11.614Z,3.87
2022-12-05T15:39:57.839Z,3.47
2022-12-05T15:42:29.881Z,3.37
2022-12-05T15:45:18.455Z,3.70
2022-12-05T15:47:47.130Z,3.60
2022-12-05T15:50:14.659Z,3.70
2022-12-05T15:52:50.853Z,3.70
2022-12-05T15:55:25.079Z,3.30
2022-12-05T15:57:59.182Z,3.50
2022-12-05T16:00:27.281Z,6.63
2022-12-05T16:03:11.442Z,4.33
2022-12-05T16:05:41.078Z,3.67
2022-12-05T16:08:09.353Z,5.57
2022-12-05T16:10:37.000Z,14.87
2022-12-05T16:13:11.959Z,12.73
2022-12-05T16:15:46.400Z,16.70
2022-12-05T16:18:27.974Z,10.30
2022-12-05T16:20:55.725Z,8.00
2022-12-05T16:23:28.268Z,11.60
2022-12-05T16:26:10.882Z,9.03
2022-12-05T16:28:38.424Z,8.33
2022-12-05T16:31:06.765Z,9.43
2022-12-05T16:33:36.628Z,7.90
2022-12-05T16:36:08.762Z,7.53
2022-12-05T16:38:36.910Z,8.03
2022-12-05T16:41:06.264Z,7.17
2022-12-05T16:43:33.828Z,8.23
2022-12-05T16:46:13.530Z,6.93
2022-12-05T16:48:41.984Z,7.80
2022-12-05T16:51:12.950Z,7.67
2022-12-05T16:53:47.920Z,7.30
2022-12-05T16:56:17.419Z,5.60
2022-12-05T16:58:45.176Z,7.30
2022-12-05T17:01:20.160Z,6.63
2022-12-05T17:03:48.062Z,6.57
2022-12-05T17:06:16.385Z,6.10
2022-12-05T17:08:44.013Z,6.63
2022-12-05T17:11:17.872Z,6.50
2022-12-05T17:13:48.493Z,6.70
2022-12-05T17:16:19.388Z,6.50
2022-12-05T17:18:47.456Z,5.90
2022-12-05T17:21:16.021Z,5.83
2022-12-05T17:23:47.884Z,5.87
2022-12-05T17:26:17.031Z,4.77
2022-12-05T17:28:44.911Z,6.23
2022-12-05T17:31:17.448Z,5.67
2022-12-05T17:33:46.149Z,5.23
2022-12-05T17:36:14.414Z,4.87
2022-12-05T17:38:43.600Z,5.40
2022-12-05T17:41:16.657Z,4.40
2022-12-05T17:43:45.720Z,4.30
2022-12-05T17:46:20.774Z,4.23
2022-12-05T17:48:48.999Z,4.40
2022-12-05T17:51:16.560Z,4.90
2022-12-05T17:53:44.858Z,4.60
2022-12-05T17:56:13.104Z,4.57
2022-12-05T17:58:41.096Z,4.73
2022-12-05T18:01:10.996Z,4.50
2022-12-05T18:03:38.634Z,4.23
2022-12-05T18:06:06.537Z,4.30
2022-12-05T18:08:41.557Z,4.53
2022-12-05T18:11:09.079Z,4.73
2022-12-05T18:13:36.758Z,4.40
2022-12-05T18:16:05.091Z,4.63
2022-12-05T18:18:32.918Z,3.90
2022-12-05T18:21:07.298Z,4.50
2022-12-05T18:23:35.889Z,4.37
2022-12-05T18:26:03.865Z,4.40
2022-12-05T18:28:31.357Z,4.47
2022-12-05T18:31:08.300Z,4.50
2022-12-05T18:33:38.850Z,4.43
2022-12-05T18:36:11.579Z,4.33
2022-12-05T18:38:39.374Z,4.50
2022-12-05T18:41:07.458Z,4.20
2022-12-05T18:43:35.463Z,4.43
2022-12-05T18:46:04.581Z,4.67
2022-12-05T18:48:42.623Z,4.57
2022-12-05T18:51:13.726Z,4.50
2022-12-05T18:53:41.769Z,4.57
2022-12-05T18:56:26.800Z,4.77
2022-12-05T18:58:58.610Z,4.50
2022-12-05T19:01:27.207Z,4.70
2022-12-05T19:03:54.901Z,4.53
2022-12-05T19:06:24.007Z,5.13
2022-12-05T19:08:54.192Z,4.90
2022-12-05T19:11:21.778Z,5.13
2022-12-05T19:13:50.545Z,21.63
2022-12-05T19:16:18.772Z,6.17
2022-12-05T19:18:49.450Z,5.77
2022-12-05T19:21:16.959Z,5.57
2022-12-05T19:23:44.437Z,5.33
2022-12-05T19:26:12.105Z,5.63
2022-12-05T19:28:39.660Z,5.80
2022-12-05T19:31:11.798Z,6.20
2022-12-05T19:33:40.671Z,5.57
2022-12-05T19:36:11.520Z,5.67
2022-12-05T19:38:40.282Z,6.23
2022-12-05T19:41:09.173Z,6.27
2022-12-05T19:43:37.209Z,7.40
2022-12-05T19:46:06.136Z,7.17
2022-12-05T19:48:34.910Z,6.87
2022-12-05T19:51:02.937Z,6.67
2022-12-05T19:53:31.719Z,6.53
2022-12-05T19:56:02.528Z,6.23
2022-12-05T19:58:32.317Z,6.63
2022-12-05T20:01:09.765Z,5.90
2022-12-05T20:03:37.531Z,5.47
2022-12-05T20:06:05.559Z,6.57
2022-12-05T20:08:33.861Z,6.20
2022-12-05T20:11:12.500Z,6.03
2022-12-05T20:13:48.213Z,5.80
2022-12-05T20:16:18.940Z,5.00
2022-12-05T20:18:46.688Z,6.00
2022-12-05T20:21:15.624Z,6.03
2022-12-05T20:23:43.322Z,5.97
2022-12-05T20:26:15.227Z,5.80
2022-12-05T20:28:42.795Z,5.83
2022-12-05T20:31:18.271Z,5.70
2022-12-05T20:33:46.146Z,5.60
2022-12-05T20:36:15.367Z,5.90
2022-12-05T20:38:43.004Z,5.77
2022-12-05T20:41:19.744Z,5.30
2022-12-05T20:43:48.239Z,5.60
2022-12-05T20:46:16.923Z,5.67
2022-12-05T20:48:44.930Z,5.43
2022-12-05T20:51:13.402Z,5.00
2022-12-05T20:53:41.565Z,5.10
2022-12-05T20:56:10.767Z,5.57
2022-12-05T20:58:38.685Z,24.20
2022-12-05T21:01:07.871Z,27.30
2022-12-05T21:03:36.039Z,33.03
2022-12-05T21:06:33.062Z,48.43
2022-12-05T21:09:01.247Z,25.40
2022-12-05T21:11:29.378Z,29.67
2022-12-05T21:13:57.702Z,124.80
2022-12-05T21:16:25.298Z,47.10
2022-12-05T21:18:53.126Z,39.20
2022-12-05T21:21:22.348Z,73.83
2022-12-05T21:23:54.066Z,53.80
2022-12-05T21:26:22.173Z,29.70
2022-12-05T21:28:49.726Z,18.03
2022-12-05T21:31:18.876Z,17.67
2022-12-05T21:33:50.794Z,16.77
2022-12-05T21:36:19.320Z,14.53
2022-12-05T21:38:52.258Z,12.53
2022-12-05T21:41:23.358Z,13.50
2022-12-05T21:43:54.412Z,9.40
2022-12-05T21:46:22.783Z,9.30
2022-12-05T21:48:50.354Z,7.60
2022-12-05T21:51:17.911Z,9.97
2022-12-05T21:53:45.394Z,10.90
2022-12-05T21:56:17.424Z,6.67
2022-12-05T21:58:45.792Z,6.63
2022-12-05T22:01:19.516Z,7.63
2022-12-05T22:03:47.582Z,7.70
2022-12-05T22:06:15.574Z,8.13
2022-12-05T22:08:43.494Z,7.43
2022-12-05T22:11:12.455Z,9.27
2022-12-05T22:13:40.298Z,7.40
2022-12-05T22:16:08.444Z,8.17
2022-12-05T22:18:36.303Z,7.37
2022-12-05T22:21:05.319Z,8.80
2022-12-05T22:23:33.141Z,8.93
2022-12-05T22:26:01.612Z,7.17
2022-12-05T22:28:29.535Z,7.70
2022-12-05T22:30:57.842Z,7.10
2022-12-05T22:33:26.159Z,8.43
2022-12-05T22:35:57.810Z,6.70
2022-12-05T22:38:29.057Z,6.90
2022-12-05T22:40:57.324Z,7.50
2022-12-05T22:43:25.481Z,6.87
2022-12-05T22:45:53.453Z,7.80
2022-12-05T22:48:21.308Z,7.43
2022-12-05T22:50:49.802Z,7.47
2022-12-05T22:53:19.013Z,7.20
2022-12-05T22:55:46.502Z,7.23
2022-12-05T22:58:14.706Z,6.57
2022-12-05T23:00:42.324Z,6.80
2022-12-05T23:03:10.196Z,6.47
2022-12-05T23:05:41.551Z,6.33
2022-12-05T23:08:09.121Z,6.80
2022-12-05T23:10:38.138Z,6.77
2022-12-05T23:13:07.022Z,6.80
2022-12-05T23:15:35.103Z,6.13
2022-12-05T23:18:02.568Z,6.13
2022-12-05T23:20:30.447Z,6.60
2022-12-05T23:22:57.932Z,6.93
2022-12-05T23:25:25.398Z,6.90
2022-12-05T23:27:52.914Z,6.63
2022-12-05T23:30:20.396Z,6.33
2022-12-05T23:32:48.037Z,6.33
2022-12-05T23:35:15.612Z,5.90
2022-12-05T23:37:43.187Z,6.50
2022-12-05T23:40:10.911Z,6.20
2022-12-05T23:42:38.501Z,6.67
2022-12-05T23:45:06.926Z,6.67
2022-12-05T23:47:34.523Z,6.40
2022-12-05T23:50:02.341Z,6.50
2022-12-05T23:52:30.012Z,6.63
2022-12-05T23:54:57.631Z,6.90
2022-12-05T23:57:25.120Z,6.73
2022-12-05T23:59:52.607Z,6.20
